createdAt,value
2019-05-12T00:00:39.380Z,83.80
2019-05-12T00:01:39.111Z,84.00
2019-05-12T00:02:39.703Z,82.97
2019-05-12T00:03:39.615Z,82.46
2019-05-12T00:04:39.050Z,82.56
2019-05-12T00:05:39.040Z,83.07
2019-05-12T00:06:39.027Z,83.07
2019-05-12T00:07:39.031Z,82.60
2019-05-12T00:08:39.007Z,82.81
2019-05-12T00:09:39.001Z,83.28
2019-05-12T00:10:39.000Z,82.67
2019-05-12T00:11:38.970Z,82.36
2019-05-12T00:12:38.988Z,81.88
2019-05-12T00:13:38.947Z,82.05
2019-05-12T00:14:38.936Z,82.50
2019-05-12T00:15:38.923Z,83.12
2019-05-12T00:16:38.914Z,83.83
2019-05-12T00:17:38.979Z,83.83
2019-05-12T00:18:38.908Z,83.42
2019-05-12T00:19:38.879Z,83.73
2019-05-12T00:20:38.972Z,83.63
2019-05-12T00:21:39.935Z,83.63
2019-05-12T00:22:38.844Z,83.73
2019-05-12T00:23:38.861Z,83.32
2019-05-12T00:24:39.619Z,83.83
2019-05-12T00:25:38.959Z,83.42
2019-05-12T00:26:38.800Z,84.14
2019-05-12T00:27:38.954Z,84.14
2019-05-12T00:28:38.775Z,84.14
2019-05-12T00:29:38.782Z,83.94
2019-05-12T00:30:39.122Z,83.42
2019-05-12T00:31:38.740Z,83.63
2019-05-12T00:32:38.728Z,82.95
2019-05-12T00:33:38.720Z,82.50
2019-05-12T00:34:38.732Z,83.01
2019-05-12T00:35:38.697Z,82.60
2019-05-12T00:36:38.685Z,82.70
2019-05-12T00:37:38.672Z,81.68
2019-05-12T00:38:38.661Z,79.36
2019-05-12T00:39:38.652Z,80.65
2019-05-12T00:40:39.481Z,79.42
2019-05-12T00:41:39.132Z,79.22
2019-05-12T00:42:38.615Z,78.29
2019-05-12T00:43:38.604Z,77.58
2019-05-12T00:44:39.143Z,76.07
2019-05-12T00:45:38.947Z,77.06
2019-05-12T00:46:38.769Z,77.17
2019-05-12T00:47:39.034Z,77.68
2019-05-12T00:48:38.546Z,78.29
2019-05-12T00:49:38.539Z,78.19
2019-05-12T00:50:38.749Z,77.58
2019-05-12T00:51:38.599Z,77.26
2019-05-12T00:52:38.799Z,74.29
2019-05-12T00:53:43.246Z,75.21
2019-05-12T00:54:39.477Z,73.71
2019-05-12T00:55:38.652Z,74.08
2019-05-12T00:56:39.171Z,73.68
2019-05-12T00:57:38.478Z,75.11
2019-05-12T00:58:38.432Z,75.52
2019-05-12T00:59:38.423Z,76.14
2019-05-12T01:00:40.618Z,76.86
2019-05-12T01:01:38.400Z,77.98
2019-05-12T01:02:38.406Z,79.22
2019-05-12T01:03:38.382Z,79.22
2019-05-12T01:04:38.370Z,80.76
2019-05-12T01:05:38.730Z,79.73
2019-05-12T01:06:38.834Z,79.73
2019-05-12T01:07:38.392Z,79.52
2019-05-12T01:08:38.471Z,80.24
2019-05-12T01:09:38.618Z,81.88
2019-05-12T01:10:39.003Z,81.37
2019-05-12T01:11:38.291Z,81.48
2019-05-12T01:12:38.459Z,81.48
2019-05-12T01:13:38.342Z,82.09
2019-05-12T01:14:38.447Z,83.01
2019-05-12T01:15:38.310Z,83.53
2019-05-12T01:16:38.709Z,83.01
2019-05-12T01:17:40.393Z,82.91
2019-05-12T01:18:38.521Z,82.40
2019-05-12T01:19:40.492Z,82.09
2019-05-12T01:20:38.846Z,81.68
2019-05-12T01:21:38.172Z,80.86
2019-05-12T01:22:38.472Z,80.86
2019-05-12T01:23:53.301Z,81.06
2019-05-12T01:24:39.154Z,81.88
2019-05-12T01:25:39.489Z,81.88
2019-05-12T01:26:38.753Z,81.68
2019-05-12T01:27:38.409Z,81.78
2019-05-12T01:28:38.333Z,81.78
2019-05-12T01:29:38.603Z,81.99
2019-05-12T01:30:38.964Z,82.54
2019-05-12T01:31:38.627Z,83.01
2019-05-12T01:32:38.316Z,84.08
2019-05-12T01:33:38.198Z,84.25
2019-05-12T01:34:38.324Z,85.17
2019-05-12T01:35:39.042Z,84.86
2019-05-12T01:36:38.217Z,84.45
2019-05-12T01:37:38.470Z,83.63
2019-05-12T01:38:38.104Z,83.12
2019-05-12T01:39:38.365Z,83.22
2019-05-12T01:40:39.424Z,83.56
2019-05-12T01:41:38.934Z,83.32
2019-05-12T01:42:38.419Z,83.53
2019-05-12T01:43:38.274Z,83.56
2019-05-12T01:44:38.315Z,83.56
2019-05-12T01:45:38.291Z,83.77
2019-05-12T01:46:38.375Z,83.01
2019-05-12T01:47:38.374Z,82.40
2019-05-12T01:48:37.887Z,82.81
2019-05-12T01:49:38.287Z,83.32
2019-05-12T01:50:38.648Z,83.87
2019-05-12T01:51:38.422Z,84.08
2019-05-12T01:52:38.715Z,84.04
2019-05-12T01:53:38.022Z,83.94
2019-05-12T01:54:38.059Z,83.83
2019-05-12T01:55:38.576Z,83.42
2019-05-12T01:56:38.246Z,83.22
2019-05-12T01:57:38.609Z,82.91
2019-05-12T01:58:38.197Z,83.26
2019-05-12T01:59:38.186Z,83.12
2019-05-12T02:00:38.827Z,83.94
2019-05-12T02:01:38.877Z,84.04
2019-05-12T02:02:38.643Z,85.38
2019-05-12T02:03:37.811Z,84.66
2019-05-12T02:04:38.048Z,84.04
2019-05-12T02:05:38.069Z,85.11
2019-05-12T02:06:38.660Z,85.58
2019-05-12T02:07:38.410Z,86.60
2019-05-12T02:08:38.390Z,87.05
2019-05-12T02:09:38.682Z,86.60
2019-05-12T02:10:38.933Z,86.09
2019-05-12T02:11:38.122Z,86.60
2019-05-12T02:12:38.362Z,87.32
2019-05-12T02:13:38.098Z,85.89
2019-05-12T02:14:38.159Z,86.60
2019-05-12T02:15:38.348Z,87.02
2019-05-12T02:16:38.633Z,86.60
2019-05-12T02:17:39.178Z,87.22
2019-05-12T02:18:38.192Z,87.12
2019-05-12T02:19:38.482Z,87.22
2019-05-12T02:20:38.078Z,86.60
2019-05-12T02:21:38.219Z,86.50
2019-05-12T02:22:38.811Z,86.71
2019-05-12T02:23:38.665Z,86.50
2019-05-12T02:24:39.056Z,87.32
2019-05-12T02:25:38.148Z,87.32
2019-05-12T02:26:38.329Z,87.12
2019-05-12T02:27:38.319Z,86.71
2019-05-12T02:28:39.456Z,87.32
2019-05-12T02:29:38.446Z,86.40
2019-05-12T02:30:41.606Z,86.50
2019-05-12T02:31:39.732Z,86.71
2019-05-12T02:32:48.071Z,87.02
2019-05-12T02:33:38.350Z,86.60
2019-05-12T02:34:37.339Z,87.02
2019-05-12T02:35:37.355Z,86.40
2019-05-12T02:36:37.325Z,86.81
2019-05-12T02:37:37.303Z,86.91
2019-05-12T02:38:37.298Z,87.22
2019-05-12T02:39:37.285Z,87.43
2019-05-12T02:40:37.274Z,87.12
2019-05-12T02:41:37.275Z,87.43
2019-05-12T02:42:37.246Z,86.81
2019-05-12T02:43:37.234Z,86.81
2019-05-12T02:44:37.224Z,87.22
2019-05-12T02:45:37.213Z,86.81
2019-05-12T02:46:37.243Z,85.58
2019-05-12T02:47:37.307Z,86.71
2019-05-12T02:48:37.189Z,86.60
2019-05-12T02:49:37.168Z,86.65
2019-05-12T02:50:37.980Z,87.26
2019-05-12T02:51:37.146Z,87.16
2019-05-12T02:52:37.152Z,86.91
2019-05-12T02:53:37.122Z,87.12
2019-05-12T02:54:50.757Z,87.32
2019-05-12T02:55:38.100Z,86.54
2019-05-12T02:56:37.086Z,86.50
2019-05-12T02:57:37.102Z,87.26
2019-05-12T02:58:37.064Z,87.43
2019-05-12T02:59:37.051Z,86.30
2019-05-12T03:00:37.199Z,86.91
2019-05-12T03:01:37.033Z,86.81
2019-05-12T03:02:37.025Z,86.60
2019-05-12T03:03:37.030Z,86.65
2019-05-12T03:04:36.994Z,87.22
2019-05-12T03:05:36.985Z,86.71
2019-05-12T03:06:36.972Z,85.58
2019-05-12T03:07:36.961Z,86.30
2019-05-12T03:08:36.993Z,85.17
2019-05-12T03:09:36.939Z,85.99
2019-05-12T03:10:36.963Z,86.71
2019-05-12T03:11:36.918Z,85.99
2019-05-12T03:12:36.903Z,85.82
2019-05-12T03:13:36.898Z,85.21
2019-05-12T03:14:40.527Z,86.03
2019-05-12T03:15:37.704Z,85.93
2019-05-12T03:16:36.895Z,86.24
2019-05-12T03:17:36.859Z,85.62
2019-05-12T03:18:36.840Z,86.44
2019-05-12T03:19:36.853Z,85.82
2019-05-12T03:20:36.814Z,86.54
2019-05-12T03:21:36.806Z,86.44
2019-05-12T03:22:36.794Z,85.62
2019-05-12T03:23:36.784Z,85.82
2019-05-12T03:24:36.768Z,85.52
2019-05-12T03:25:37.311Z,85.82
2019-05-12T03:26:36.755Z,85.00
2019-05-12T03:27:36.733Z,84.08
2019-05-12T03:28:36.726Z,83.83
2019-05-12T03:29:36.712Z,84.25
2019-05-12T03:30:39.100Z,83.77
2019-05-12T03:31:41.353Z,83.87
2019-05-12T03:32:38.354Z,83.87
2019-05-12T03:33:44.092Z,84.08
2019-05-12T03:34:38.746Z,83.98
2019-05-12T03:35:42.684Z,83.98
2019-05-12T03:36:42.564Z,84.39
2019-05-12T03:37:37.621Z,84.18
2019-05-12T03:38:36.608Z,84.18
2019-05-12T03:39:36.600Z,83.56
2019-05-12T03:40:38.288Z,82.33
2019-05-12T03:41:36.592Z,81.30
2019-05-12T03:42:36.563Z,81.92
2019-05-12T03:43:36.570Z,82.03
2019-05-12T03:44:36.540Z,82.75
2019-05-12T03:45:36.722Z,82.23
2019-05-12T03:46:36.563Z,82.43
2019-05-12T03:47:36.508Z,82.64
2019-05-12T03:48:36.502Z,81.62
2019-05-12T03:49:36.484Z,81.62
2019-05-12T03:50:36.582Z,81.62
2019-05-12T03:51:36.460Z,80.90
2019-05-12T03:52:36.470Z,80.69
2019-05-12T03:53:36.438Z,79.97
2019-05-12T03:54:36.441Z,79.66
2019-05-12T03:55:41.969Z,80.90
2019-05-12T03:56:37.405Z,81.24
2019-05-12T03:57:36.411Z,81.76
2019-05-12T03:58:36.383Z,81.55
2019-05-12T03:59:36.373Z,81.71
2019-05-12T04:00:36.706Z,81.51
2019-05-12T04:01:37.019Z,80.73
2019-05-12T04:02:36.364Z,80.21
2019-05-12T04:03:36.326Z,81.24
2019-05-12T04:04:36.314Z,79.29
2019-05-12T04:05:36.412Z,79.80
2019-05-12T04:06:36.291Z,79.29
2019-05-12T04:07:36.279Z,79.91
2019-05-12T04:08:36.285Z,79.70
2019-05-12T04:09:36.258Z,80.01
2019-05-12T04:10:36.858Z,81.14
2019-05-12T04:11:36.254Z,81.55
2019-05-12T04:12:36.226Z,81.55
2019-05-12T04:13:36.239Z,81.55
2019-05-12T04:14:36.203Z,82.06
2019-05-12T04:15:36.194Z,81.45
2019-05-12T04:16:36.734Z,81.76
2019-05-12T04:17:36.167Z,81.14
2019-05-12T04:18:36.161Z,80.87
2019-05-12T04:19:36.164Z,80.35
2019-05-12T04:20:36.544Z,80.05
2019-05-12T04:21:36.122Z,79.94
2019-05-12T04:22:36.110Z,80.05
2019-05-12T04:23:36.098Z,81.07
2019-05-12T04:24:36.114Z,81.04
2019-05-12T04:25:51.074Z,80.97
2019-05-12T04:26:37.075Z,79.80
2019-05-12T04:27:36.053Z,80.01
2019-05-12T04:28:36.045Z,80.63
2019-05-12T04:29:36.042Z,79.19
2019-05-12T04:30:36.196Z,80.11
2019-05-12T04:31:36.013Z,79.80
2019-05-12T04:32:36.042Z,78.61
2019-05-12T04:33:35.989Z,78.30
2019-05-12T04:34:35.971Z,78.71
2019-05-12T04:35:36.171Z,79.74
2019-05-12T04:36:36.060Z,80.05
2019-05-12T04:37:35.937Z,80.05
2019-05-12T04:38:35.928Z,79.43
2019-05-12T04:39:35.916Z,78.81
2019-05-12T04:40:36.514Z,79.53
2019-05-12T04:41:35.911Z,80.46
2019-05-12T04:42:35.880Z,79.63
2019-05-12T04:43:35.869Z,79.94
2019-05-12T04:44:35.859Z,79.84
2019-05-12T04:45:35.865Z,79.33
2019-05-12T04:46:35.858Z,78.50
2019-05-12T04:47:35.829Z,78.40
2019-05-12T04:48:36.158Z,79.02
2019-05-12T04:49:35.811Z,79.12
2019-05-12T04:50:36.429Z,79.05
2019-05-12T04:51:35.807Z,79.12
2019-05-12T04:52:35.768Z,80.05
2019-05-12T04:53:35.758Z,79.74
2019-05-12T04:54:35.801Z,78.64
2019-05-12T04:55:36.385Z,79.02
2019-05-12T04:56:36.289Z,78.44
2019-05-12T04:57:35.748Z,78.64
2019-05-12T04:58:35.701Z,78.33
2019-05-12T04:59:35.694Z,79.05
2019-05-12T05:00:36.143Z,78.13
2019-05-12T05:01:35.702Z,78.30
2019-05-12T05:02:36.598Z,79.12
2019-05-12T05:03:35.646Z,78.71
2019-05-12T05:04:35.631Z,79.33
2019-05-12T05:05:36.338Z,78.71
2019-05-12T05:06:35.611Z,78.54
2019-05-12T05:07:36.092Z,78.30
2019-05-12T05:08:35.589Z,78.50
2019-05-12T05:09:35.577Z,78.44
2019-05-12T05:10:35.566Z,78.54
2019-05-12T05:11:35.553Z,79.47
2019-05-12T05:12:35.542Z,79.88
2019-05-12T05:13:39.533Z,79.57
2019-05-12T05:14:35.519Z,78.96
2019-05-12T05:15:35.641Z,78.85
2019-05-12T05:16:35.499Z,78.96
2019-05-12T05:17:35.488Z,79.67
2019-05-12T05:18:35.507Z,79.77
2019-05-12T05:19:35.462Z,79.67
2019-05-12T05:20:35.451Z,79.67
2019-05-12T05:21:35.442Z,79.47
2019-05-12T05:22:38.098Z,79.67
2019-05-12T05:23:35.417Z,79.67
2019-05-12T05:24:35.421Z,80.08
2019-05-12T05:25:35.394Z,79.77
2019-05-12T05:26:37.455Z,80.29
2019-05-12T05:27:35.371Z,79.98
2019-05-12T05:28:35.361Z,79.84
2019-05-12T05:29:37.251Z,80.05
2019-05-12T05:30:35.339Z,79.94
2019-05-12T05:31:35.329Z,79.60
2019-05-12T05:32:35.314Z,79.12
2019-05-12T05:33:35.304Z,77.75
2019-05-12T05:34:35.296Z,77.78
2019-05-12T05:35:39.607Z,78.71
2019-05-12T05:36:35.277Z,78.71
2019-05-12T05:37:36.915Z,78.92
2019-05-12T05:38:36.254Z,79.63
2019-05-12T05:39:43.186Z,79.60
2019-05-12T05:40:36.258Z,79.91
2019-05-12T05:41:35.348Z,79.39
2019-05-12T05:42:35.695Z,79.39
2019-05-12T05:43:35.192Z,77.85
2019-05-12T05:44:37.947Z,78.23
2019-05-12T05:45:35.578Z,78.33
2019-05-12T05:46:38.877Z,77.92
2019-05-12T05:47:36.148Z,77.85
2019-05-12T05:48:35.293Z,77.75
2019-05-12T05:49:35.125Z,78.06
2019-05-12T05:50:35.130Z,77.65
2019-05-12T05:51:39.478Z,77.95
2019-05-12T05:52:38.712Z,77.85
2019-05-12T05:53:35.080Z,78.47
2019-05-12T05:54:36.377Z,79.60
2019-05-12T05:55:35.093Z,79.25
2019-05-12T05:56:41.792Z,78.94
2019-05-12T05:57:36.038Z,77.92
2019-05-12T05:58:35.023Z,77.81
2019-05-12T05:59:36.823Z,77.92
2019-05-12T06:00:39.098Z,77.20
2019-05-12T06:01:35.209Z,77.61
2019-05-12T06:02:40.246Z,77.55
2019-05-12T06:03:35.965Z,77.55
2019-05-12T06:04:39.234Z,78.06
2019-05-12T06:05:38.600Z,78.74
2019-05-12T06:06:34.931Z,77.95
2019-05-12T06:07:39.049Z,77.75
2019-05-12T06:08:34.910Z,78.16
2019-05-12T06:09:34.900Z,77.75
2019-05-12T06:10:39.844Z,78.57
2019-05-12T06:11:35.876Z,78.27
2019-05-12T06:12:34.866Z,77.75
2019-05-12T06:13:34.852Z,78.67
2019-05-12T06:14:34.842Z,78.57
2019-05-12T06:15:40.445Z,78.57
2019-05-12T06:16:35.820Z,79.39
2019-05-12T06:17:34.808Z,79.49
2019-05-12T06:18:34.796Z,78.57
2019-05-12T06:19:34.785Z,77.75
2019-05-12T06:20:37.948Z,78.06
2019-05-12T06:21:38.172Z,77.85
2019-05-12T06:22:34.757Z,77.95
2019-05-12T06:23:39.005Z,78.06
2019-05-12T06:24:34.743Z,78.16
2019-05-12T06:25:45.537Z,77.85
2019-05-12T06:26:35.994Z,78.67
2019-05-12T06:27:35.948Z,78.67
2019-05-12T06:28:39.462Z,77.71
2019-05-12T06:29:35.676Z,77.71
2019-05-12T06:30:37.384Z,77.47
2019-05-12T06:31:35.649Z,77.68
2019-05-12T06:32:34.642Z,77.03
2019-05-12T06:33:36.294Z,76.92
2019-05-12T06:34:34.618Z,76.10
2019-05-12T06:35:40.006Z,76.00
2019-05-12T06:36:35.589Z,76.10
2019-05-12T06:37:34.582Z,75.79
2019-05-12T06:38:38.732Z,77.33
2019-05-12T06:39:35.558Z,77.09
2019-05-12T06:40:41.033Z,75.76
2019-05-12T06:41:35.536Z,74.84
2019-05-12T06:42:34.525Z,75.66
2019-05-12T06:43:38.766Z,74.77
2019-05-12T06:44:35.501Z,75.28
2019-05-12T06:45:41.879Z,75.49
2019-05-12T06:46:35.479Z,76.00
2019-05-12T06:47:34.652Z,75.93
2019-05-12T06:48:34.456Z,76.10
2019-05-12T06:49:34.445Z,75.42
2019-05-12T06:50:38.957Z,75.79
2019-05-12T06:51:35.446Z,75.62
2019-05-12T06:52:38.698Z,75.38
2019-05-12T06:53:35.402Z,74.46
2019-05-12T06:54:34.387Z,74.66
2019-05-12T06:55:39.024Z,74.46
2019-05-12T06:56:35.362Z,73.91
2019-05-12T06:57:34.414Z,74.87
2019-05-12T06:58:34.614Z,75.15
2019-05-12T06:59:34.333Z,74.73
2019-05-12T07:00:35.247Z,74.53
2019-05-12T07:01:34.308Z,74.43
2019-05-12T07:02:37.016Z,74.84
2019-05-12T07:03:37.262Z,74.73
2019-05-12T07:04:34.274Z,74.84
2019-05-12T07:05:38.301Z,75.04
2019-05-12T07:06:34.249Z,74.94
2019-05-12T07:07:41.845Z,75.04
2019-05-12T07:08:38.249Z,75.31
2019-05-12T07:09:36.680Z,74.39
2019-05-12T07:10:42.695Z,74.60
2019-05-12T07:11:44.668Z,74.80
2019-05-12T07:12:43.634Z,73.88
2019-05-12T07:13:35.170Z,74.39
2019-05-12T07:14:34.668Z,75.42
2019-05-12T07:15:35.776Z,74.66
2019-05-12T07:16:35.136Z,75.38
2019-05-12T07:17:37.259Z,73.78
2019-05-12T07:18:37.096Z,72.92
2019-05-12T07:19:34.101Z,72.61
2019-05-12T07:20:35.401Z,72.52
2019-05-12T07:21:34.078Z,72.92
2019-05-12T07:22:43.762Z,73.23
2019-05-12T07:23:35.055Z,73.95
2019-05-12T07:24:34.206Z,74.36
2019-05-12T07:25:36.619Z,74.97
2019-05-12T07:26:34.021Z,74.43
2019-05-12T07:27:39.297Z,73.71
2019-05-12T07:28:36.294Z,73.81
2019-05-12T07:29:34.988Z,74.02
2019-05-12T07:30:35.202Z,73.54
2019-05-12T07:31:33.962Z,73.85
2019-05-12T07:32:34.455Z,73.85
2019-05-12T07:33:41.413Z,74.36
2019-05-12T07:34:34.929Z,74.56
2019-05-12T07:35:34.185Z,74.36
2019-05-12T07:36:33.906Z,73.03
2019-05-12T07:37:34.031Z,73.44
2019-05-12T07:38:34.398Z,73.74
2019-05-12T07:39:36.954Z,74.08
2019-05-12T07:40:37.702Z,74.66
2019-05-12T07:41:34.302Z,75.07
2019-05-12T07:42:39.282Z,74.36
2019-05-12T07:43:34.824Z,73.95
2019-05-12T07:44:39.764Z,74.36
2019-05-12T07:45:34.819Z,73.71
2019-05-12T07:46:34.348Z,73.40
2019-05-12T07:47:33.781Z,73.13
2019-05-12T07:48:33.773Z,72.17
2019-05-12T07:49:37.813Z,72.89
2019-05-12T07:50:34.529Z,73.20
2019-05-12T07:51:38.792Z,73.16
2019-05-12T07:52:34.744Z,73.16
2019-05-12T07:53:33.899Z,72.14
2019-05-12T07:54:37.326Z,72.52
2019-05-12T07:55:34.313Z,71.80
2019-05-12T07:56:35.799Z,71.19
2019-05-12T07:57:37.946Z,71.39
2019-05-12T07:58:34.657Z,71.80
2019-05-12T07:59:38.919Z,72.11
2019-05-12T08:00:34.650Z,71.63
2019-05-12T08:01:35.791Z,70.61
2019-05-12T08:02:35.669Z,70.37
2019-05-12T08:03:34.555Z,69.65
2019-05-12T08:04:39.656Z,69.35
2019-05-12T08:05:34.596Z,69.21
2019-05-12T08:06:41.433Z,70.14
2019-05-12T08:07:34.551Z,69.73
2019-05-12T08:08:34.033Z,70.23
2019-05-12T08:09:36.301Z,70.14
2019-05-12T08:10:34.311Z,69.73
2019-05-12T08:11:36.719Z,69.32
2019-05-12T08:12:34.064Z,68.44
2019-05-12T08:13:37.605Z,68.67
2019-05-12T08:14:34.473Z,68.33
2019-05-12T08:15:34.153Z,68.06
2019-05-12T08:16:36.777Z,68.57
2019-05-12T08:17:33.746Z,68.16
2019-05-12T08:18:44.392Z,69.08
2019-05-12T08:19:33.921Z,69.35
2019-05-12T08:20:43.361Z,67.72
2019-05-12T08:21:34.907Z,67.99
2019-05-12T08:22:34.709Z,67.96
2019-05-12T08:23:33.880Z,65.72
2019-05-12T08:24:36.852Z,66.23
2019-05-12T08:25:34.413Z,66.54
2019-05-12T08:26:33.545Z,65.86
2019-05-12T08:27:34.015Z,65.75
2019-05-12T08:28:36.213Z,66.36
2019-05-12T08:29:34.324Z,65.92
2019-05-12T08:30:33.682Z,66.00
2019-05-12T08:31:40.160Z,65.33
2019-05-12T08:32:34.266Z,62.75
2019-05-12T08:33:34.752Z,60.99
2019-05-12T08:34:34.168Z,60.92
2019-05-12T08:35:37.503Z,61.51
2019-05-12T08:36:34.222Z,61.43
2019-05-12T08:37:33.434Z,61.33
2019-05-12T08:38:33.723Z,60.95
2019-05-12T08:39:33.718Z,62.27
2019-05-12T08:40:34.101Z,61.08
2019-05-12T08:41:34.090Z,63.22
2019-05-12T08:42:34.431Z,62.63
2019-05-12T08:43:34.353Z,62.77
2019-05-12T08:44:39.567Z,63.28
2019-05-12T08:45:37.366Z,64.09
2019-05-12T08:46:34.429Z,66.36
2019-05-12T08:47:35.558Z,65.72
2019-05-12T08:48:34.346Z,64.09
2019-05-12T08:49:49.202Z,65.22
2019-05-12T08:50:36.115Z,63.68
2019-05-12T08:51:33.896Z,62.16
2019-05-12T08:52:37.106Z,62.16
2019-05-12T08:53:34.027Z,62.77
2019-05-12T08:54:33.659Z,63.18
2019-05-12T08:55:35.682Z,62.63
2019-05-12T08:56:33.315Z,61.82
2019-05-12T08:57:40.840Z,62.71
2019-05-12T08:58:46.859Z,62.68
2019-05-12T08:59:34.249Z,61.33
2019-05-12T09:00:34.149Z,61.30
2019-05-12T09:01:34.396Z,60.08
2019-05-12T09:02:34.448Z,60.41
2019-05-12T09:03:33.571Z,60.31
2019-05-12T09:04:33.932Z,60.37
2019-05-12T09:05:34.590Z,60.88
2019-05-12T09:06:34.373Z,61.31
2019-05-12T09:07:38.403Z,62.30
2019-05-12T09:08:37.279Z,63.01
2019-05-12T09:09:33.851Z,61.76
2019-05-12T09:10:34.269Z,61.22
2019-05-12T09:11:33.518Z,61.60
2019-05-12T09:12:33.732Z,60.08
2019-05-12T09:13:33.913Z,59.37
2019-05-12T09:14:40.714Z,59.88
2019-05-12T09:15:34.521Z,59.91
2019-05-12T09:16:33.557Z,60.00
2019-05-12T09:17:35.631Z,59.96
2019-05-12T09:18:35.259Z,60.60
2019-05-12T09:19:33.751Z,60.09
2019-05-12T09:20:33.140Z,59.71
2019-05-12T09:21:36.562Z,60.39
2019-05-12T09:22:34.348Z,60.30
2019-05-12T09:23:40.757Z,60.85
2019-05-12T09:24:33.840Z,60.52
2019-05-12T09:25:34.116Z,60.31
2019-05-12T09:26:34.368Z,57.95
2019-05-12T09:27:33.502Z,57.54
2019-05-12T09:28:44.435Z,58.12
2019-05-12T09:29:34.138Z,57.76
2019-05-12T09:30:33.709Z,58.75
2019-05-12T09:31:33.601Z,55.71
2019-05-12T09:32:33.846Z,54.36
2019-05-12T09:33:34.689Z,52.56
2019-05-12T09:34:33.541Z,52.05
2019-05-12T09:35:34.849Z,52.86
2019-05-12T09:36:33.987Z,52.84
2019-05-12T09:37:38.788Z,53.04
2019-05-12T09:38:33.517Z,54.03
2019-05-12T09:39:34.179Z,53.27
2019-05-12T09:40:35.630Z,51.04
2019-05-12T09:41:35.924Z,49.70
2019-05-12T09:42:33.543Z,49.05
2019-05-12T09:43:34.364Z,49.76
2019-05-12T09:44:34.122Z,48.72
2019-05-12T09:45:33.409Z,49.61
2019-05-12T09:46:34.360Z,47.77
2019-05-12T09:47:34.353Z,47.36
2019-05-12T09:48:33.448Z,45.06
2019-05-12T09:49:38.607Z,45.65
2019-05-12T09:50:34.080Z,45.68
2019-05-12T09:51:41.046Z,43.00
2019-05-12T09:52:33.523Z,41.31
2019-05-12T09:53:34.144Z,40.03
2019-05-12T09:54:35.546Z,37.77
2019-05-12T09:55:34.210Z,35.44
2019-05-12T09:56:34.202Z,35.81
2019-05-12T09:57:40.693Z,34.99
2019-05-12T09:58:33.688Z,34.58
2019-05-12T09:59:33.591Z,33.39
2019-05-12T10:00:35.966Z,33.12
2019-05-12T10:01:35.314Z,34.99
2019-05-12T10:02:33.247Z,34.91
2019-05-12T10:03:38.845Z,35.11
2019-05-12T10:04:33.229Z,36.00
2019-05-12T10:05:39.383Z,35.36
2019-05-12T10:06:33.952Z,32.94
2019-05-12T10:07:33.964Z,32.31
2019-05-12T10:08:35.671Z,32.29
2019-05-12T10:09:33.556Z,32.17
2019-05-12T10:10:38.174Z,31.46
2019-05-12T10:11:33.141Z,32.17
2019-05-12T10:12:36.605Z,33.54
2019-05-12T10:13:33.122Z,32.63
2019-05-12T10:14:32.111Z,33.81
2019-05-12T10:15:33.122Z,32.60
2019-05-12T10:16:33.421Z,30.98
2019-05-12T10:17:34.017Z,32.56
2019-05-12T10:18:33.641Z,32.15
2019-05-12T10:19:33.982Z,31.85
2019-05-12T10:20:35.372Z,35.18
2019-05-12T10:21:33.032Z,38.16
2019-05-12T10:22:37.048Z,35.05
2019-05-12T10:23:34.040Z,31.58
2019-05-12T10:24:40.570Z,30.14
2019-05-12T10:25:33.948Z,30.14
2019-05-12T10:26:34.121Z,29.81
2019-05-12T10:27:34.495Z,30.51
2019-05-12T10:28:31.958Z,29.39
2019-05-12T10:29:32.427Z,30.12
2019-05-12T10:30:34.050Z,29.21
2019-05-12T10:31:35.761Z,29.90
2019-05-12T10:32:34.260Z,28.76
2019-05-12T10:33:33.792Z,27.65
2019-05-12T10:34:35.780Z,27.55
2019-05-12T10:35:34.966Z,28.17
2019-05-12T10:36:33.720Z,28.97
2019-05-12T10:37:31.858Z,28.85
2019-05-12T10:38:34.219Z,29.22
2019-05-12T10:39:33.435Z,28.91
2019-05-12T10:40:33.875Z,29.38
2019-05-12T10:41:34.131Z,27.67
2019-05-12T10:42:33.637Z,27.37
2019-05-12T10:43:34.090Z,27.26
2019-05-12T10:44:37.633Z,26.50
2019-05-12T10:45:32.779Z,28.19
2019-05-12T10:46:31.754Z,26.79
2019-05-12T10:47:33.999Z,25.20
2019-05-12T10:48:33.717Z,27.19
2019-05-12T10:49:33.677Z,26.70
2019-05-12T10:50:33.821Z,25.12
2019-05-12T10:51:34.248Z,26.09
2019-05-12T10:52:36.995Z,25.50
2019-05-12T10:53:34.129Z,25.72
2019-05-12T10:54:31.668Z,25.14
2019-05-12T10:55:33.588Z,25.34
2019-05-12T10:56:34.639Z,25.85
2019-05-12T10:57:33.394Z,25.85
2019-05-12T10:58:33.549Z,25.42
2019-05-12T10:59:45.247Z,24.49
2019-05-12T11:00:33.746Z,24.99
2019-05-12T11:01:31.592Z,24.10
2019-05-12T11:02:33.323Z,25.80
2019-05-12T11:03:33.649Z,27.25
2019-05-12T11:04:36.978Z,28.22
2019-05-12T11:05:33.874Z,25.62
2019-05-12T11:06:33.941Z,26.12
2019-05-12T11:07:31.529Z,25.32
2019-05-12T11:08:33.287Z,25.13
2019-05-12T11:09:33.918Z,25.43
2019-05-12T11:10:31.514Z,25.20
2019-05-12T11:11:32.924Z,25.48
2019-05-12T11:12:33.367Z,24.16
2019-05-12T11:13:33.678Z,24.29
2019-05-12T11:14:31.449Z,24.29
2019-05-12T11:15:33.931Z,23.78
2019-05-12T11:16:32.944Z,24.10
2019-05-12T11:17:33.492Z,24.58
2019-05-12T11:18:31.406Z,25.66
2019-05-12T11:19:33.584Z,25.54
2019-05-12T11:20:34.067Z,26.09
2019-05-12T11:21:33.523Z,25.81
2019-05-12T11:22:33.309Z,27.99
2019-05-12T11:23:31.354Z,30.85
2019-05-12T11:24:33.571Z,30.85
2019-05-12T11:25:33.738Z,30.01
2019-05-12T11:26:31.322Z,28.47
2019-05-12T11:27:31.321Z,27.66
2019-05-12T11:28:33.481Z,26.84
2019-05-12T11:29:43.334Z,26.86
2019-05-12T11:30:34.310Z,29.13
2019-05-12T11:31:33.355Z,29.31
2019-05-12T11:32:34.961Z,29.13
2019-05-12T11:33:34.104Z,29.82
2019-05-12T11:34:33.168Z,29.41
2019-05-12T11:35:31.234Z,29.10
2019-05-12T11:36:31.210Z,30.07
2019-05-12T11:37:31.195Z,28.26
2019-05-12T11:38:31.189Z,27.08
2019-05-12T11:39:36.683Z,27.11
2019-05-12T11:40:34.396Z,27.95
2019-05-12T11:41:32.927Z,30.18
2019-05-12T11:42:33.455Z,29.90
2019-05-12T11:43:31.127Z,30.19
2019-05-12T11:44:31.124Z,30.41
2019-05-12T11:45:33.536Z,31.11
2019-05-12T11:46:34.091Z,31.11
2019-05-12T11:47:34.610Z,31.26
2019-05-12T11:48:33.836Z,33.42
2019-05-12T11:49:33.214Z,34.74
2019-05-12T11:50:31.066Z,34.76
2019-05-12T11:51:31.037Z,34.46
2019-05-12T11:52:32.964Z,33.25
2019-05-12T11:53:32.876Z,33.15
2019-05-12T11:54:31.001Z,34.64
2019-05-12T11:55:31.852Z,33.45
2019-05-12T11:56:30.979Z,32.97
2019-05-12T11:57:30.967Z,32.26
2019-05-12T11:58:30.954Z,31.56
2019-05-12T11:59:30.944Z,32.28
2019-05-12T12:00:30.950Z,34.11
2019-05-12T12:01:30.921Z,34.81
2019-05-12T12:02:30.911Z,35.21
2019-05-12T12:03:30.900Z,34.41
2019-05-12T12:04:30.886Z,33.82
2019-05-12T12:05:30.893Z,33.94
2019-05-12T12:06:33.071Z,34.76
2019-05-12T12:07:33.148Z,34.86
2019-05-12T12:08:33.697Z,35.26
2019-05-12T12:09:31.828Z,34.66
2019-05-12T12:10:35.445Z,35.16
2019-05-12T12:11:34.136Z,34.96
2019-05-12T12:12:30.796Z,33.26
2019-05-12T12:13:30.789Z,32.66
2019-05-12T12:14:31.893Z,32.66
2019-05-12T12:15:30.779Z,32.76
2019-05-12T12:16:30.749Z,32.86
2019-05-12T12:17:32.619Z,33.55
2019-05-12T12:18:30.729Z,33.13
2019-05-12T12:19:38.924Z,33.44
2019-05-12T12:20:33.790Z,33.85
2019-05-12T12:21:34.274Z,33.85
2019-05-12T12:22:30.691Z,34.56
2019-05-12T12:23:30.671Z,34.76
2019-05-12T12:24:31.623Z,34.94
2019-05-12T12:25:30.665Z,34.64
2019-05-12T12:26:33.982Z,35.53
2019-05-12T12:27:31.639Z,35.23
2019-05-12T12:28:30.618Z,33.73
2019-05-12T12:29:30.603Z,33.95
2019-05-12T12:30:38.235Z,32.75
2019-05-12T12:31:37.251Z,34.25
2019-05-12T12:32:33.804Z,34.77
2019-05-12T12:33:34.371Z,34.67
2019-05-12T12:34:33.175Z,34.97
2019-05-12T12:35:30.552Z,34.69
2019-05-12T12:36:30.524Z,35.60
2019-05-12T12:37:30.513Z,35.41
2019-05-12T12:38:30.502Z,36.12
2019-05-12T12:39:30.493Z,36.13
2019-05-12T12:40:30.498Z,34.94
2019-05-12T12:41:30.467Z,35.33
2019-05-12T12:42:35.778Z,34.62
2019-05-12T12:43:31.442Z,34.52
2019-05-12T12:44:30.435Z,33.61
2019-05-12T12:45:35.698Z,34.01
2019-05-12T12:46:33.690Z,34.72
2019-05-12T12:47:30.399Z,34.92
2019-05-12T12:48:30.388Z,35.92
2019-05-12T12:49:30.378Z,35.41
2019-05-12T12:50:30.821Z,36.52
2019-05-12T12:51:30.354Z,37.51
2019-05-12T12:52:30.344Z,36.10